Time;durP1;ratioP1;P1;durP2;ratioP2;P2;SDS_P1;SDS_P2;PMS_P1;PMS_P2;Temp;Humidity;BMP_temperature;BMP_pressure;BME280_temperature;BME280_humidity;BME280_pressure;Samples;Min_cycle;Max_cycle;Signal;HPM_P1;HPM_P2
2024/02/26 00:01:32;;;;;;;4.50;4.20;;;7.30;99.90;;;;;;5052876;28;20175;-71
2024/02/26 00:03:59;;;;;;;4.10;3.90;;;7.30;99.90;;;;;;5052690;28;20169;-71
2024/02/26 00:06:25;;;;;;;4.63;4.20;;;7.10;99.90;;;;;;5052720;28;20198;-71
2024/02/26 00:08:50;;;;;;;4.53;4.10;;;7.00;99.90;;;;;;5052621;28;20189;-72
2024/02/26 00:11:16;;;;;;;4.00;3.70;;;7.00;99.90;;;;;;5052656;28;20167;-72
2024/02/26 00:13:42;;;;;;;4.50;4.10;;;6.90;99.90;;;;;;5052117;28;20175;-72
2024/02/26 00:16:07;;;;;;;4.40;4.00;;;6.80;99.90;;;;;;5052604;28;20610;-71
2024/02/26 00:18:33;;;;;;;4.77;4.37;;;6.80;99.90;;;;;;5053601;28;20261;-71
2024/02/26 00:21:00;;;;;;;4.67;4.37;;;6.70;99.90;;;;;;5034539;28;20257;-73
2024/02/26 00:23:26;;;;;;;4.67;4.37;;;6.70;99.90;;;;;;5052575;28;20167;-72
2024/02/26 00:25:52;;;;;;;4.70;4.30;;;6.70;99.90;;;;;;5052161;28;20193;-72
2024/02/26 00:28:19;;;;;;;6.33;4.20;;;6.70;99.90;;;;;;5052533;28;20175;-72
2024/02/26 00:30:45;;;;;;;3.93;3.73;;;6.60;99.90;;;;;;5052275;28;20181;-73
2024/02/26 00:33:11;;;;;;;4.20;3.93;;;6.60;99.90;;;;;;5057709;28;20655;-72
2024/02/26 00:35:37;;;;;;;4.50;4.20;;;6.50;99.90;;;;;;5072170;28;20292;-73
2024/02/26 00:38:03;;;;;;;4.20;3.90;;;6.40;99.90;;;;;;5072165;28;20170;-73
2024/02/26 00:40:29;;;;;;;4.87;4.10;;;6.40;99.90;;;;;;5071947;28;20259;-73
2024/02/26 00:42:54;;;;;;;4.50;4.20;;;6.30;99.90;;;;;;5071967;28;20178;-72
2024/02/26 00:45:20;;;;;;;4.40;4.10;;;6.30;99.90;;;;;;5072118;28;20245;-72
2024/02/26 00:47:47;;;;;;;4.20;3.90;;;6.30;99.90;;;;;;5037325;28;20186;-72
2024/02/26 00:50:12;;;;;;;4.60;4.30;;;6.20;99.90;;;;;;5051937;28;20217;-72
2024/02/26 00:52:38;;;;;;;4.20;3.97;;;6.20;99.90;;;;;;5051847;28;20198;-72
2024/02/26 00:55:04;;;;;;;4.37;4.10;;;6.10;99.90;;;;;;5051456;28;20210;-71
2024/02/26 00:57:30;;;;;;;4.47;4.10;;;6.10;99.90;;;;;;5071652;28;20232;-72
2024/02/26 00:59:56;;;;;;;4.30;4.00;;;6.20;99.90;;;;;;5071907;28;20238;-72
2024/02/26 01:02:22;;;;;;;4.50;4.13;;;6.20;99.90;;;;;;5072419;28;20168;-72
2024/02/26 01:04:48;;;;;;;4.70;4.10;;;6.20;99.90;;;;;;5073494;28;20595;-72
2024/02/26 01:07:13;;;;;;;4.83;4.23;;;6.20;99.90;;;;;;5071868;28;20212;-72
2024/02/26 01:09:39;;;;;;;4.40;4.10;;;6.20;99.90;;;;;;5071689;28;20178;-72
2024/02/26 01:12:05;;;;;;;3.90;3.70;;;6.30;99.90;;;;;;5053200;28;20198;-71
2024/02/26 01:14:31;;;;;;;4.83;4.17;;;6.30;99.90;;;;;;5057486;28;20761;-72
2024/02/26 01:16:56;;;;;;;4.33;4.03;;;6.30;99.90;;;;;;5071200;28;20210;-71
2024/02/26 01:19:22;;;;;;;4.50;4.30;;;6.20;99.90;;;;;;5071443;28;20667;-71
2024/02/26 01:21:47;;;;;;;4.47;4.10;;;6.20;99.90;;;;;;5071436;28;20170;-71
2024/02/26 01:24:13;;;;;;;4.20;4.00;;;6.20;99.90;;;;;;5071083;28;20178;-71
2024/02/26 01:26:39;;;;;;;4.17;3.97;;;6.20;99.90;;;;;;5071315;28;20190;-71
2024/02/26 01:29:05;;;;;;;4.40;4.10;;;6.20;99.90;;;;;;5066754;28;20637;-71
2024/02/26 01:31:31;;;;;;;4.03;3.80;;;6.20;99.90;;;;;;5051453;28;20250;-72
2024/02/26 01:33:56;;;;;;;4.17;3.83;;;6.20;99.90;;;;;;5051208;28;20177;-72
2024/02/26 01:36:22;;;;;;;4.00;3.67;;;6.20;99.90;;;;;;5051011;28;20226;-72
2024/02/26 01:38:47;;;;;;;4.10;3.70;;;6.20;99.90;;;;;;5050683;28;20264;-73
2024/02/26 01:41:16;;;;;;;4.13;3.83;;;6.20;99.90;;;;;;5051103;28;20210;-72
2024/02/26 01:43:42;;;;;;;3.77;3.57;;;6.20;99.90;;;;;;5066585;28;20227;-72
2024/02/26 01:46:13;;;;;;;4.03;3.60;;;6.20;99.90;;;;;;5071524;28;20585;-72
2024/02/26 01:48:42;;;;;;;3.90;3.70;;;6.20;99.90;;;;;;5068051;28;20171;-72
2024/02/26 01:51:08;;;;;;;4.30;4.00;;;6.30;99.90;;;;;;5051095;28;20170;-72
2024/02/26 01:53:34;;;;;;;4.20;4.00;;;6.30;99.90;;;;;;5050955;28;20162;-72
2024/02/26 01:56:01;;;;;;;4.40;4.20;;;6.30;99.90;;;;;;5050975;28;20278;-72
2024/02/26 01:58:27;;;;;;;5.07;4.60;;;6.30;99.90;;;;;;5051116;28;20167;-72
2024/02/26 02:00:53;;;;;;;4.67;4.20;;;6.20;99.90;;;;;;5050914;28;20248;-72
2024/02/26 02:03:18;;;;;;;4.97;4.40;;;6.20;99.90;;;;;;5052729;28;20643;-72
2024/02/26 02:05:44;;;;;;;4.33;3.93;;;6.20;99.90;;;;;;5071059;28;20186;-72
2024/02/26 02:08:14;;;;;;;4.50;4.20;;;6.20;99.90;;;;;;5070809;28;20468;-72
2024/02/26 02:10:42;;;;;;;4.00;3.80;;;6.20;99.90;;;;;;5063759;28;20197;-72
2024/02/26 02:13:07;;;;;;;4.00;3.70;;;6.20;99.90;;;;;;5051382;28;20186;-73
2024/02/26 02:15:33;;;;;;;4.10;3.90;;;6.20;99.90;;;;;;5050910;28;20205;-72
2024/02/26 02:17:58;;;;;;;4.30;4.00;;;6.20;99.90;;;;;;5050965;28;20312;-73
2024/02/26 02:20:34;;;;;;;4.10;3.90;;;6.10;99.90;;;;;;5051213;28;20619;-73
2024/02/26 02:23:00;;;;;;;4.00;3.80;;;6.10;99.90;;;;;;5050935;28;20544;-72
2024/02/26 02:25:26;;;;;;;4.00;3.80;;;6.10;99.90;;;;;;5052875;28;20191;-73
2024/02/26 02:27:54;;;;;;;4.23;4.03;;;6.10;99.90;;;;;;5065973;28;20659;-72
2024/02/26 02:30:28;;;;;;;4.80;4.50;;;6.10;99.90;;;;;;5070674;28;20171;-71
2024/02/26 02:32:53;;;;;;;3.83;3.60;;;6.10;99.90;;;;;;5070666;28;20677;-71
2024/02/26 02:35:19;;;;;;;3.90;3.70;;;6.10;99.90;;;;;;5070502;28;20198;-72
2024/02/26 02:37:44;;;;;;;3.83;3.60;;;6.10;99.90;;;;;;5070751;28;20174;-73
2024/02/26 02:40:10;;;;;;;4.20;4.00;;;6.10;99.90;;;;;;5051226;28;20274;-72
2024/02/26 02:42:36;;;;;;;4.07;3.87;;;6.10;99.90;;;;;;5050738;28;20236;-72
2024/02/26 02:45:01;;;;;;;4.10;3.90;;;6.10;99.90;;;;;;5050340;28;20261;-70
2024/02/26 02:47:27;;;;;;;3.80;3.60;;;6.10;99.90;;;;;;5050555;28;20182;-72
2024/02/26 02:49:53;;;;;;;3.97;3.77;;;6.10;99.90;;;;;;5068505;28;20618;-70
2024/02/26 02:52:18;;;;;;;3.97;3.77;;;6.10;99.90;;;;;;5074007;28;20180;-72
2024/02/26 02:54:44;;;;;;;4.20;4.00;;;6.10;99.90;;;;;;5073900;28;20499;-72
2024/02/26 02:57:10;;;;;;;4.83;4.53;;;6.10;99.90;;;;;;5073980;28;20204;-74
2024/02/26 02:59:36;;;;;;;4.40;4.20;;;6.10;99.90;;;;;;5074313;28;20204;-72
2024/02/26 03:02:02;;;;;;;4.03;3.83;;;6.10;99.90;;;;;;5073958;28;20173;-72
2024/02/26 03:04:29;;;;;;;4.23;3.97;;;6.10;99.90;;;;;;5059937;28;20170;-73
2024/02/26 03:06:55;;;;;;;5.37;3.97;;;6.10;99.90;;;;;;5054960;28;20229;-73
2024/02/26 03:09:20;;;;;;;3.80;3.53;;;6.10;99.90;;;;;;5054075;28;20205;-72
2024/02/26 03:11:46;;;;;;;4.10;3.90;;;6.10;99.90;;;;;;5054128;28;20546;-73
2024/02/26 03:14:11;;;;;;;4.30;4.00;;;6.10;99.90;;;;;;5053248;28;20171;-73
2024/02/26 03:16:37;;;;;;;4.00;3.80;;;6.10;99.90;;;;;;5054004;28;20198;-73
2024/02/26 03:19:03;;;;;;;4.07;3.87;;;6.10;99.90;;;;;;5053679;28;20174;-72
2024/02/26 03:21:28;;;;;;;4.33;4.00;;;6.10;99.90;;;;;;5060414;28;20178;-72
2024/02/26 03:23:54;;;;;;;4.20;4.00;;;6.10;99.90;;;;;;5073697;28;20174;-74
2024/02/26 03:26:21;;;;;;;3.90;3.70;;;6.10;99.90;;;;;;5073596;28;20187;-73
2024/02/26 03:28:47;;;;;;;4.20;4.00;;;6.10;99.90;;;;;;5073649;28;20186;-72
2024/02/26 03:31:12;;;;;;;4.10;3.80;;;6.10;99.90;;;;;;5073853;28;20623;-72
2024/02/26 03:33:38;;;;;;;4.30;4.00;;;6.10;99.90;;;;;;5073789;28;20588;-73
2024/02/26 03:36:04;;;;;;;4.20;3.90;;;6.20;99.90;;;;;;5055457;28;20237;-72
2024/02/26 03:38:30;;;;;;;4.17;3.87;;;6.20;99.90;;;;;;5053513;28;20190;-73
2024/02/26 03:40:55;;;;;;;3.97;3.77;;;6.20;99.90;;;;;;5053978;28;20600;-73
2024/02/26 03:43:21;;;;;;;3.87;3.67;;;6.20;99.90;;;;;;5053272;28;20174;-72
2024/02/26 03:45:47;;;;;;;4.10;3.80;;;6.20;99.90;;;;;;5053667;28;20190;-73
2024/02/26 03:48:12;;;;;;;4.03;3.83;;;6.20;99.90;;;;;;5054805;28;20182;-72
2024/02/26 03:50:38;;;;;;;4.00;3.80;;;6.20;99.90;;;;;;5070033;28;20236;-73
2024/02/26 03:53:04;;;;;;;4.10;3.90;;;6.20;99.90;;;;;;5055001;28;20697;-73
2024/02/26 03:55:30;;;;;;;4.00;3.80;;;6.20;99.90;;;;;;5073421;28;20539;-73
2024/02/26 03:57:56;;;;;;;4.37;3.97;;;6.20;99.90;;;;;;5073560;28;20231;-73
2024/02/26 04:00:22;;;;;;;4.20;4.00;;;6.20;99.90;;;;;;5070179;28;20619;-73
2024/02/26 04:02:47;;;;;;;4.03;3.83;;;6.20;99.90;;;;;;5072909;28;20241;-73
2024/02/26 04:05:14;;;;;;;4.23;4.03;;;6.20;99.90;;;;;;5072608;28;20765;-73
2024/02/26 04:07:40;;;;;;;4.33;3.90;;;6.20;99.90;;;;;;5073121;28;20182;-72
2024/02/26 04:10:12;;;;;;;4.30;4.00;;;6.20;99.90;;;;;;5072800;28;20185;-73
2024/02/26 04:12:39;;;;;;;4.23;4.03;;;6.20;99.90;;;;;;5072298;28;20173;-73
2024/02/26 04:15:06;;;;;;;3.90;3.70;;;6.20;99.90;;;;;;5070168;28;20181;-73
2024/02/26 04:17:32;;;;;;;4.33;4.10;;;6.20;99.90;;;;;;5052893;28;20232;-73
2024/02/26 04:19:57;;;;;;;4.20;4.00;;;6.20;99.90;;;;;;5052837;28;20206;-72
2024/02/26 04:22:23;;;;;;;3.90;3.70;;;6.20;99.90;;;;;;5052646;28;20200;-72
2024/02/26 04:24:50;;;;;;;4.73;4.33;;;6.30;99.90;;;;;;5052515;28;20249;-72
2024/02/26 04:27:16;;;;;;;5.17;3.97;;;6.20;99.90;;;;;;5052457;28;20195;-72
2024/02/26 04:29:41;;;;;;;4.50;4.10;;;6.30;99.90;;;;;;5065793;28;20273;-72
2024/02/26 04:32:07;;;;;;;4.20;4.00;;;6.30;99.90;;;;;;5072589;28;20552;-73
2024/02/26 04:34:32;;;;;;;4.20;3.90;;;6.30;99.90;;;;;;5072158;28;20542;-73
2024/02/26 04:36:58;;;;;;;4.20;3.80;;;6.30;99.90;;;;;;5054357;28;20740;-72
2024/02/26 04:39:24;;;;;;;4.40;4.20;;;6.30;99.90;;;;;;5072162;28;20210;-73
2024/02/26 04:41:49;;;;;;;4.13;3.93;;;6.30;99.90;;;;;;5061629;28;20663;-72
2024/02/26 04:44:15;;;;;;;4.20;4.00;;;6.30;99.90;;;;;;5052271;28;20182;-73
2024/02/26 04:46:40;;;;;;;4.43;4.13;;;6.30;99.90;;;;;;5059349;28;20197;-72
2024/02/26 04:49:06;;;;;;;4.60;4.20;;;6.20;99.90;;;;;;5071952;28;20639;-73
2024/02/26 04:51:31;;;;;;;4.30;3.93;;;6.20;99.90;;;;;;5072281;28;20235;-72
2024/02/26 04:53:57;;;;;;;4.37;4.07;;;6.20;99.90;;;;;;5060800;28;20179;-72
2024/02/26 04:56:23;;;;;;;4.57;4.30;;;6.20;99.90;;;;;;5053781;28;20202;-73
2024/02/26 04:58:48;;;;;;;5.53;4.20;;;6.20;99.90;;;;;;5071986;28;20166;-72
2024/02/26 05:01:16;;;;;;;4.57;4.17;;;6.20;99.90;;;;;;5071887;28;20224;-72
2024/02/26 05:03:42;;;;;;;4.43;4.13;;;6.20;99.90;;;;;;5071669;28;20174;-73
2024/02/26 05:06:09;;;;;;;4.30;4.10;;;6.20;99.90;;;;;;5071804;28;20201;-73
2024/02/26 05:08:35;;;;;;;5.10;4.67;;;6.10;99.90;;;;;;5054472;28;20185;-73
2024/02/26 05:11:02;;;;;;;4.40;4.00;;;6.20;99.90;;;;;;5060741;28;20178;-72
2024/02/26 05:13:28;;;;;;;4.20;3.90;;;6.10;99.90;;;;;;5050431;28;20546;-72
2024/02/26 05:15:54;;;;;;;4.50;4.20;;;6.10;99.90;;;;;;5051865;28;20194;-73
2024/02/26 05:18:20;;;;;;;5.30;4.90;;;6.10;99.90;;;;;;5051699;28;20183;-72
2024/02/26 05:20:45;;;;;;;5.37;4.33;;;6.10;99.90;;;;;;5051332;28;20202;-73
2024/02/26 05:23:11;;;;;;;4.33;4.10;;;6.10;99.90;;;;;;5051117;28;20170;-72
2024/02/26 05:25:37;;;;;;;5.13;4.73;;;6.10;99.90;;;;;;5063323;28;20277;-73
2024/02/26 05:28:02;;;;;;;4.73;4.33;;;6.20;99.90;;;;;;5071588;28;20197;-72
2024/02/26 05:30:28;;;;;;;5.07;4.47;;;6.20;99.90;;;;;;5071200;28;20174;-72
2024/02/26 05:32:54;;;;;;;5.23;4.93;;;6.20;99.90;;;;;;5071315;28;20185;-72
2024/02/26 05:35:20;;;;;;;4.93;4.57;;;6.10;99.90;;;;;;5071007;28;20181;-72
2024/02/26 05:37:46;;;;;;;4.83;4.53;;;6.20;99.90;;;;;;5071446;28;20178;-73
2024/02/26 05:40:12;;;;;;;4.63;4.33;;;6.20;99.90;;;;;;5060251;28;20293;-72
2024/02/26 05:42:37;;;;;;;5.37;4.87;;;6.10;99.90;;;;;;5033383;28;20654;-72
2024/02/26 05:45:06;;;;;;;5.20;4.80;;;6.20;99.90;;;;;;5051172;28;20175;-73
2024/02/26 05:47:33;;;;;;;4.60;4.30;;;6.20;99.90;;;;;;5033441;28;20179;-73
2024/02/26 05:50:00;;;;;;;4.90;4.53;;;6.10;99.90;;;;;;5051659;28;20175;-72
2024/02/26 05:52:26;;;;;;;4.30;4.10;;;6.10;99.90;;;;;;5053763;28;20558;-72
2024/02/26 05:54:52;;;;;;;4.60;4.30;;;6.10;99.90;;;;;;5071293;28;20201;-72
2024/02/26 05:57:18;;;;;;;4.60;4.40;;;6.10;99.90;;;;;;5071542;28;20232;-72
2024/02/26 05:59:44;;;;;;;5.37;4.77;;;6.10;99.90;;;;;;5071416;28;20197;-73
2024/02/26 06:02:09;;;;;;;5.00;4.70;;;6.00;99.90;;;;;;5071175;28;20721;-73
2024/02/26 06:04:35;;;;;;;5.00;4.60;;;6.10;99.90;;;;;;5053179;28;20260;-73
2024/02/26 06:07:01;;;;;;;4.80;4.50;;;6.10;99.90;;;;;;5070234;28;20247;-72
2024/02/26 06:09:26;;;;;;;4.60;4.30;;;6.10;99.90;;;;;;5051036;28;20197;-73
2024/02/26 06:11:52;;;;;;;4.77;4.47;;;6.00;99.90;;;;;;5051170;28;20189;-72
2024/02/26 06:14:18;;;;;;;4.20;4.00;;;6.00;99.90;;;;;;5050730;28;20171;-73
2024/02/26 06:16:44;;;;;;;4.90;4.60;;;6.00;99.90;;;;;;5050960;28;20198;-73
2024/02/26 06:19:10;;;;;;;5.20;4.70;;;6.00;99.90;;;;;;5050915;28;20194;-72
2024/02/26 06:21:36;;;;;;;4.73;4.43;;;6.00;99.90;;;;;;5062403;28;20243;-72
2024/02/26 06:24:02;;;;;;;4.73;4.50;;;6.00;99.90;;;;;;5072667;28;20745;-73
2024/02/26 06:26:29;;;;;;;5.00;4.70;;;6.00;99.90;;;;;;5074798;28;20202;-72
2024/02/26 06:28:55;;;;;;;5.20;4.70;;;6.00;99.90;;;;;;5075173;28;20170;-72
2024/02/26 06:31:22;;;;;;;5.13;4.77;;;6.00;99.90;;;;;;5077066;28;20277;-72
2024/02/26 06:33:48;;;;;;;5.30;4.90;;;6.00;99.90;;;;;;5076387;28;20181;-71
2024/02/26 06:36:16;;;;;;;5.37;4.90;;;6.00;99.90;;;;;;5045817;28;20269;-72
2024/02/26 06:38:41;;;;;;;5.47;5.07;;;6.00;99.90;;;;;;5054614;28;20527;-72
2024/02/26 06:41:07;;;;;;;5.47;5.07;;;6.00;99.90;;;;;;5053873;28;20293;-72
2024/02/26 06:43:33;;;;;;;5.60;5.10;;;6.00;99.90;;;;;;5067362;28;20186;-73
2024/02/26 06:45:58;;;;;;;5.27;4.97;;;6.00;99.90;;;;;;5074488;28;20194;-72
2024/02/26 06:48:24;;;;;;;5.20;4.80;;;6.00;99.90;;;;;;5072621;28;20457;-72
2024/02/26 06:50:50;;;;;;;5.47;5.03;;;6.00;99.90;;;;;;5054346;28;20670;-73
2024/02/26 06:53:16;;;;;;;5.80;5.40;;;6.00;99.90;;;;;;5053784;28;20175;-72
2024/02/26 06:55:42;;;;;;;6.07;5.57;;;6.00;99.90;;;;;;5054461;28;20191;-72
2024/02/26 06:58:08;;;;;;;54.27;7.90;;;6.00;99.90;;;;;;5054336;28;20214;-70
2024/02/26 07:00:34;;;;;;;5.23;4.93;;;6.00;99.90;;;;;;5059045;28;20206;-72
2024/02/26 07:03:00;;;;;;;5.30;4.90;;;6.00;99.90;;;;;;5062177;28;20239;-72
2024/02/26 07:05:27;;;;;;;5.80;5.30;;;6.00;99.90;;;;;;5069534;28;20201;-72
2024/02/26 07:07:52;;;;;;;5.70;5.30;;;6.00;99.90;;;;;;5060518;28;20577;-71
2024/02/26 07:10:18;;;;;;;5.33;4.93;;;6.00;99.90;;;;;;5055690;28;20243;-74
2024/02/26 07:12:44;;;;;;;5.60;5.20;;;6.00;99.90;;;;;;5071382;28;20265;-73
2024/02/26 07:15:10;;;;;;;5.43;5.13;;;6.00;99.90;;;;;;5073165;28;20241;-73
2024/02/26 07:17:36;;;;;;;6.10;4.93;;;6.00;99.90;;;;;;5073860;28;20286;-74
2024/02/26 07:20:05;;;;;;;5.70;5.17;;;6.00;99.90;;;;;;5073834;28;20229;-73
2024/02/26 07:22:31;;;;;;;5.43;5.03;;;6.00;99.90;;;;;;5073533;28;20185;-73
2024/02/26 07:24:56;;;;;;;5.53;4.90;;;6.00;99.90;;;;;;5073320;28;20253;-74
2024/02/26 07:27:22;;;;;;;5.67;5.07;;;6.00;99.90;;;;;;5073349;28;20197;-74
2024/02/26 07:29:48;;;;;;;5.23;4.90;;;6.00;99.90;;;;;;5073369;28;20182;-74
2024/02/26 07:32:14;;;;;;;6.17;5.60;;;6.00;99.90;;;;;;5073271;28;20639;-73
2024/02/26 07:34:41;;;;;;;6.03;5.33;;;6.00;99.90;;;;;;5072667;28;20519;-72
2024/02/26 07:37:07;;;;;;;6.00;5.50;;;6.00;99.90;;;;;;5073193;28;20241;-74
2024/02/26 07:39:33;;;;;;;6.63;6.10;;;6.00;99.90;;;;;;5073211;28;20209;-71
2024/02/26 07:41:59;;;;;;;6.13;5.73;;;6.00;99.90;;;;;;5073492;28;20714;-73
2024/02/26 07:44:24;;;;;;;6.17;5.67;;;6.00;99.90;;;;;;5073066;28;20254;-74
2024/02/26 07:46:50;;;;;;;6.60;6.00;;;6.00;99.90;;;;;;5053498;28;20211;-74
2024/02/26 07:49:16;;;;;;;5.77;5.37;;;6.00;99.90;;;;;;5054653;28;20302;-73
2024/02/26 07:51:41;;;;;;;6.40;5.80;;;6.00;99.90;;;;;;5072270;28;20240;-73
2024/02/26 07:54:07;;;;;;;5.80;5.40;;;6.00;99.90;;;;;;5072867;28;20198;-74
2024/02/26 07:56:33;;;;;;;5.57;5.17;;;6.00;99.90;;;;;;5055599;28;20241;-73
2024/02/26 07:58:59;;;;;;;5.83;5.43;;;6.00;99.90;;;;;;5056710;28;20210;-74
2024/02/26 08:01:26;;;;;;;6.07;5.57;;;6.00;99.90;;;;;;5068742;28;20527;-74
2024/02/26 08:03:53;;;;;;;6.03;5.63;;;6.00;99.90;;;;;;5068550;28;20182;-74
2024/02/26 08:06:18;;;;;;;5.87;5.43;;;6.00;99.90;;;;;;5061117;28;20198;-73
2024/02/26 08:08:44;;;;;;;5.50;5.10;;;6.00;99.90;;;;;;5072739;28;20639;-74
2024/02/26 08:11:09;;;;;;;5.37;5.07;;;6.00;99.90;;;;;;5072574;28;20210;-73
2024/02/26 08:13:35;;;;;;;5.77;5.27;;;6.00;99.90;;;;;;5068139;28;20272;-74
2024/02/26 08:16:01;;;;;;;5.53;5.13;;;6.00;99.90;;;;;;5072782;28;20194;-73
2024/02/26 08:18:27;;;;;;;5.20;4.80;;;6.00;99.90;;;;;;5072518;28;20631;-74
2024/02/26 08:20:52;;;;;;;6.03;5.43;;;6.00;99.90;;;;;;5072258;28;20202;-74
2024/02/26 08:23:18;;;;;;;6.20;5.57;;;6.00;99.90;;;;;;5072019;28;20181;-74
2024/02/26 08:25:44;;;;;;;5.87;5.37;;;6.10;99.90;;;;;;5054513;28;20201;-74
2024/02/26 08:28:13;;;;;;;5.90;5.40;;;6.10;99.90;;;;;;5072259;28;20220;-73
2024/02/26 08:30:38;;;;;;;5.43;5.07;;;6.10;99.90;;;;;;5072054;28;20267;-74
2024/02/26 08:33:04;;;;;;;5.87;5.37;;;6.10;99.90;;;;;;5071772;28;20217;-74
2024/02/26 08:35:30;;;;;;;5.27;4.80;;;6.10;99.90;;;;;;5067141;28;20229;-74
2024/02/26 08:37:55;;;;;;;5.77;5.30;;;6.10;99.90;;;;;;5070680;28;20174;-74
2024/02/26 08:40:21;;;;;;;5.60;5.20;;;6.10;99.90;;;;;;5051845;28;20252;-75
2024/02/26 08:42:47;;;;;;;5.20;4.90;;;6.10;99.90;;;;;;5060081;28;20178;-75
2024/02/26 08:45:12;;;;;;;5.80;5.40;;;6.10;99.90;;;;;;5064284;28;20186;-75
2024/02/26 08:47:38;;;;;;;5.60;5.20;;;6.10;99.90;;;;;;5052429;28;20174;-74
2024/02/26 08:50:05;;;;;;;6.27;5.50;;;6.10;99.90;;;;;;5059393;28;20205;-74
2024/02/26 08:52:30;;;;;;;5.60;5.13;;;6.10;99.90;;;;;;5056089;28;20182;-74
2024/02/26 08:54:57;;;;;;;5.90;5.40;;;6.10;99.90;;;;;;5065598;28;20667;-75
2024/02/26 08:57:22;;;;;;;5.20;4.83;;;6.10;99.90;;;;;;5071459;28;20190;-74
2024/02/26 08:59:48;;;;;;;5.70;5.30;;;6.10;99.90;;;;;;5071567;28;20762;-75
2024/02/26 09:02:13;;;;;;;6.07;5.10;;;6.10;99.90;;;;;;5070986;28;20201;-75
2024/02/26 09:04:39;;;;;;;5.47;5.10;;;6.20;99.90;;;;;;5071456;28;20244;-74
2024/02/26 09:07:06;;;;;;;5.57;5.07;;;6.20;99.90;;;;;;5070821;28;20218;-75
2024/02/26 09:09:31;;;;;;;5.70;5.20;;;6.20;99.90;;;;;;5071253;28;20566;-75
2024/02/26 09:11:57;;;;;;;5.07;4.77;;;6.20;99.90;;;;;;5053500;28;20220;-75
2024/02/26 09:14:22;;;;;;;5.83;5.43;;;6.30;99.90;;;;;;5053118;28;20542;-75
2024/02/26 09:16:48;;;;;;;5.90;5.27;;;6.30;99.90;;;;;;5071269;28;20198;-75
2024/02/26 09:19:15;;;;;;;5.93;5.47;;;6.30;99.90;;;;;;5068280;28;20580;-75
2024/02/26 09:21:44;;;;;;;5.30;4.80;;;6.30;99.90;;;;;;5051650;28;20265;-74
2024/02/26 09:24:14;;;;;;;5.73;5.23;;;6.30;99.90;;;;;;5051331;28;20552;-75
2024/02/26 09:26:40;;;;;;;5.60;5.20;;;6.30;99.90;;;;;;5051266;28;20601;-74
2024/02/26 09:29:05;;;;;;;5.37;5.07;;;6.40;99.90;;;;;;5051065;28;20219;-74
2024/02/26 09:31:31;;;;;;;5.50;4.60;;;6.40;99.90;;;;;;5051041;28;20312;-74
2024/02/26 09:33:57;;;;;;;5.53;5.13;;;6.40;99.90;;;;;;5053004;28;20538;-73
2024/02/26 09:38:50;;;;;;;6.10;5.60;;;6.40;99.90;;;;;;5090666;28;20203;-74
2024/02/26 09:41:17;;;;;;;5.60;5.10;;;6.40;99.90;;;;;;5092244;28;20283;-74
2024/02/26 09:43:45;;;;;;;6.00;5.40;;;6.50;99.90;;;;;;5096814;28;20557;-76
2024/02/26 09:46:19;;;;;;;5.40;4.90;;;6.50;99.90;;;;;;5092736;28;20186;-74
2024/02/26 09:48:47;;;;;;;5.97;5.43;;;6.50;99.90;;;;;;5071116;28;20180;-76
2024/02/26 09:51:16;;;;;;;7.70;5.70;;;6.50;99.90;;;;;;5072182;28;20173;-75
2024/02/26 09:53:54;;;;;;;6.07;5.47;;;6.50;99.90;;;;;;5071406;28;20591;-75
2024/02/26 09:56:21;;;;;;;7.53;5.27;;;6.60;99.90;;;;;;5071514;28;20255;-74
2024/02/26 09:58:56;;;;;;;6.13;5.53;;;6.60;99.90;;;;;;5075593;28;20174;-75
2024/02/26 10:01:24;;;;;;;6.27;5.70;;;6.60;99.90;;;;;;5079464;28;20217;-74
2024/02/26 10:03:57;;;;;;;6.43;5.83;;;6.60;99.90;;;;;;5077663;28;20173;-75
2024/02/26 10:06:24;;;;;;;5.90;5.50;;;6.70;99.90;;;;;;5099093;28;20231;-76
2024/02/26 10:08:50;;;;;;;6.23;5.63;;;6.70;99.90;;;;;;5081373;28;20537;-74
2024/02/26 10:11:17;;;;;;;5.77;5.37;;;6.70;99.90;;;;;;5081365;28;20219;-73
2024/02/26 10:13:43;;;;;;;7.13;5.67;;;6.70;99.90;;;;;;5099253;28;20222;-74
2024/02/26 10:16:09;;;;;;;6.93;6.33;;;6.70;99.90;;;;;;5098848;28;20665;-76
2024/02/26 10:18:51;;;;;;;5.70;5.30;;;6.60;99.90;;;;;;5087306;28;20196;-76
2024/02/26 10:21:21;;;;;;;5.80;5.30;;;6.70;99.90;;;;;;5098817;28;20201;-75
2024/02/26 10:23:47;;;;;;;5.77;5.37;;;6.60;99.90;;;;;;5099737;28;20657;-75
2024/02/26 10:26:14;;;;;;;6.23;5.63;;;6.60;99.90;;;;;;5081099;28;20403;-75
2024/02/26 10:28:44;;;;;;;5.30;5.00;;;6.60;99.90;;;;;;5098515;28;20177;-75
2024/02/26 10:31:10;;;;;;;6.30;5.47;;;6.50;99.90;;;;;;5098627;28;20181;-75
2024/02/26 10:33:37;;;;;;;5.97;5.57;;;6.60;99.90;;;;;;5070769;28;20181;-75
2024/02/26 10:36:10;;;;;;;6.83;5.30;;;6.60;99.90;;;;;;5096735;28;20211;-75
2024/02/26 10:38:37;;;;;;;5.73;5.33;;;6.70;99.90;;;;;;5097955;28;20180;-74
2024/02/26 10:41:04;;;;;;;7.27;6.00;;;6.80;99.90;;;;;;5098747;28;20209;-75
2024/02/26 10:43:30;;;;;;;5.80;5.40;;;6.80;99.90;;;;;;5099442;28;20165;-75
2024/02/26 10:45:56;;;;;;;5.70;5.20;;;6.80;99.90;;;;;;5080835;28;20190;-77
2024/02/26 10:48:21;;;;;;;5.53;5.13;;;7.00;99.90;;;;;;5098283;28;20206;-75
2024/02/26 10:50:48;;;;;;;5.90;5.50;;;7.10;99.90;;;;;;5096912;28;20199;-74
2024/02/26 10:53:17;;;;;;;5.53;5.13;;;7.20;99.90;;;;;;5097534;28;20165;-74
2024/02/26 10:55:48;;;;;;;5.90;5.30;;;7.20;99.90;;;;;;5102540;28;20225;-75
2024/02/26 10:58:16;;;;;;;6.20;5.60;;;7.20;99.90;;;;;;5106296;28;20169;-76
2024/02/26 11:00:43;;;;;;;5.63;5.27;;;7.10;99.90;;;;;;5098785;28;20616;-75
2024/02/26 11:03:10;;;;;;;6.57;5.87;;;7.10;99.90;;;;;;5100068;28;20282;-73
2024/02/26 11:05:37;;;;;;;6.70;6.20;;;7.20;99.90;;;;;;5103361;28;20213;-75
2024/02/26 11:08:05;;;;;;;6.53;5.93;;;7.30;99.90;;;;;;5106460;28;20176;-76
2024/02/26 11:10:31;;;;;;;6.67;6.17;;;7.40;99.90;;;;;;5084737;28;20177;-75
2024/02/26 11:12:59;;;;;;;6.33;5.93;;;7.50;99.90;;;;;;5100250;28;20173;-75
2024/02/26 11:15:25;;;;;;;6.33;5.73;;;7.50;99.90;;;;;;5084042;28;20212;-75
2024/02/26 11:17:52;;;;;;;6.50;5.90;;;7.60;99.90;;;;;;5103435;28;20703;-76
2024/02/26 11:20:19;;;;;;;7.30;6.60;;;7.70;99.90;;;;;;5099257;28;20185;-76
2024/02/26 11:22:45;;;;;;;6.97;6.37;;;7.60;99.90;;;;;;5097530;28;20199;-75
2024/02/26 11:25:12;;;;;;;8.00;7.37;;;7.60;99.90;;;;;;5094173;28;20202;-75
2024/02/26 11:27:46;;;;;;;8.60;7.80;;;7.60;99.90;;;;;;5093847;28;20720;-74
2024/02/26 11:30:13;;;;;;;6.60;6.20;;;7.60;99.90;;;;;;5092757;28;20223;-76
2024/02/26 11:32:39;;;;;;;6.70;6.20;;;7.50;99.90;;;;;;5098000;28;20519;-74
2024/02/26 11:35:05;;;;;;;6.27;5.67;;;7.60;99.90;;;;;;5093567;28;20253;-73
2024/02/26 11:37:32;;;;;;;7.50;6.67;;;7.60;99.90;;;;;;5093872;28;20589;-73
2024/02/26 11:40:00;;;;;;;7.33;6.73;;;7.60;99.90;;;;;;5093920;28;20640;-74
2024/02/26 11:42:26;;;;;;;6.83;6.33;;;7.60;99.90;;;;;;5096952;28;20207;-75
2024/02/26 11:44:52;;;;;;;7.60;6.90;;;7.50;99.90;;;;;;5080871;28;20174;-74
2024/02/26 11:47:22;;;;;;;9.47;8.57;;;7.40;99.90;;;;;;5076904;28;20208;-75
2024/02/26 11:49:48;;;;;;;8.23;7.63;;;7.50;99.90;;;;;;5078253;28;20180;-76
2024/02/26 11:52:15;;;;;;;8.27;7.57;;;7.50;99.90;;;;;;5076420;28;20692;-74
2024/02/26 11:54:56;;;;;;;7.53;6.83;;;7.50;99.90;;;;;;5073875;28;20513;-74
2024/02/26 11:57:32;;;;;;;6.23;5.63;;;7.50;99.90;;;;;;5084473;28;20266;-73
2024/02/26 12:00:07;;;;;;;7.03;6.53;;;7.50;99.90;;;;;;5093968;28;20220;-73
2024/02/26 12:02:44;;;;;;;6.40;5.90;;;7.50;99.90;;;;;;5094073;28;20743;-73
2024/02/26 12:05:19;;;;;;;6.80;6.20;;;7.50;99.90;;;;;;5093165;28;20597;-75
2024/02/26 12:07:49;;;;;;;6.40;5.90;;;7.40;99.90;;;;;;5081611;28;20198;-75
2024/02/26 12:10:25;;;;;;;6.50;6.00;;;7.30;99.90;;;;;;5056683;28;20181;-75
2024/02/26 12:12:57;;;;;;;6.23;5.80;;;7.30;99.90;;;;;;5074492;28;20173;-74
2024/02/26 12:15:24;;;;;;;6.47;5.80;;;7.30;99.90;;;;;;5073917;28;20174;-75
2024/02/26 12:17:50;;;;;;;5.67;5.27;;;7.40;99.90;;;;;;5089509;28;20197;-75
2024/02/26 12:20:17;;;;;;;6.30;5.80;;;7.40;99.90;;;;;;5094167;28;20193;-74
2024/02/26 12:22:49;;;;;;;6.07;5.67;;;7.40;99.90;;;;;;5093287;28;20256;-74
2024/02/26 12:25:16;;;;;;;6.30;5.80;;;7.40;99.90;;;;;;5075778;28;20332;-73
2024/02/26 12:27:42;;;;;;;5.80;5.40;;;7.30;99.90;;;;;;5075110;28;20197;-76
2024/02/26 12:30:08;;;;;;;5.70;5.30;;;7.30;99.90;;;;;;5073374;28;20173;-74
2024/02/26 12:32:35;;;;;;;6.27;5.73;;;7.30;99.90;;;;;;5076125;28;20503;-74
2024/02/26 12:35:01;;;;;;;6.37;5.73;;;7.30;99.90;;;;;;5073413;28;20180;-74
2024/02/26 12:37:28;;;;;;;5.87;5.37;;;7.30;99.90;;;;;;5063678;28;20303;-72
2024/02/26 12:39:53;;;;;;;6.57;6.07;;;7.30;99.90;;;;;;5077028;28;20190;-74
2024/02/26 12:42:19;;;;;;;6.40;5.90;;;7.30;99.90;;;;;;5070031;28;20685;-74
2024/02/26 12:44:50;;;;;;;6.87;6.30;;;7.30;99.90;;;;;;5054910;28;20553;-73
2024/02/26 12:47:16;;;;;;;6.37;5.87;;;7.40;99.90;;;;;;5093879;28;20193;-75
2024/02/26 12:49:48;;;;;;;6.50;5.90;;;7.50;99.90;;;;;;5094450;28;20173;-74
2024/02/26 12:52:14;;;;;;;6.77;6.17;;;7.50;99.90;;;;;;5096578;28;20169;-75
2024/02/26 12:54:42;;;;;;;6.87;6.27;;;7.60;99.90;;;;;;5084527;28;20245;-74
2024/02/26 12:57:09;;;;;;;7.10;6.50;;;7.70;99.90;;;;;;5074064;28;20195;-75